createdAt,value
2023-02-16T00:00:00.743Z,-1.00
2023-02-16T00:05:31.076Z,-1.10
2023-02-16T00:10:38.330Z,-1.10
2023-02-16T00:15:41.747Z,-1.20
2023-02-16T00:20:45.668Z,-1.20
2023-02-16T00:25:48.674Z,-1.20
2023-02-16T00:30:51.985Z,-1.20
2023-02-16T00:35:55.025Z,-1.20
2023-02-16T00:40:57.813Z,-1.30
2023-02-16T00:46:00.754Z,-1.30
2023-02-16T00:51:13.743Z,-1.40
2023-02-16T00:56:24.040Z,-1.40
2023-02-16T01:01:32.133Z,-1.40
2023-02-16T01:06:53.414Z,-1.50
2023-02-16T01:11:57.116Z,-1.50
2023-02-16T01:17:00.309Z,-1.50
2023-02-16T01:22:03.225Z,-1.50
2023-02-16T01:27:06.149Z,-1.60
2023-02-16T01:32:12.982Z,-1.50
2023-02-16T01:37:16.936Z,-1.50
2023-02-16T01:42:51.967Z,-1.60
2023-02-16T01:48:03.216Z,-1.60
2023-02-16T01:53:39.356Z,-1.60
2023-02-16T01:58:54.793Z,-1.60
2023-02-16T02:04:17.252Z,-1.60
2023-02-16T02:09:44.862Z,-1.60
2023-02-16T02:14:49.211Z,-1.60
2023-02-16T02:20:13.519Z,-1.70
2023-02-16T02:25:52.279Z,-1.70
2023-02-16T02:31:14.679Z,-1.70
2023-02-16T02:36:31.449Z,-1.80
2023-02-16T02:42:16.401Z,-1.80
2023-02-16T02:47:19.454Z,-1.80
2023-02-16T02:53:06.636Z,-1.80
2023-02-16T02:58:29.861Z,-1.80
2023-02-16T03:03:46.636Z,-1.90
2023-02-16T03:09:02.267Z,-1.90
2023-02-16T03:22:04.394Z,-2.00
2023-02-16T03:27:27.303Z,-2.00
2023-02-16T03:40:48.072Z,-2.10
2023-02-16T03:45:48.858Z,-2.20
2023-02-16T03:50:51.889Z,-2.20
2023-02-16T03:55:54.867Z,-2.20
2023-02-16T04:02:19.681Z,-2.20
2023-02-16T04:07:46.249Z,-2.20
2023-02-16T04:12:49.671Z,-2.20
2023-02-16T04:17:54.137Z,-2.20
2023-02-16T04:23:05.499Z,-2.30
2023-02-16T04:28:41.140Z,-2.30
2023-02-16T04:34:46.099Z,-2.30
2023-02-16T04:40:56.631Z,-2.30
2023-02-16T04:46:00.179Z,-2.40
2023-02-16T04:51:05.643Z,-2.40
2023-02-16T04:56:13.309Z,-2.40
2023-02-16T05:01:23.014Z,-2.40
2023-02-16T05:06:26.037Z,-2.40
2023-02-16T05:11:47.734Z,-2.40
2023-02-16T05:16:51.127Z,-2.40
2023-02-16T05:21:54.089Z,-2.50
2023-02-16T05:26:57.107Z,-2.50
2023-02-16T05:32:04.298Z,-2.60
2023-02-16T05:37:07.933Z,-2.60
2023-02-16T05:42:12.323Z,-2.60
2023-02-16T05:47:15.363Z,-2.70
2023-02-16T05:52:18.335Z,-2.70
2023-02-16T05:57:21.426Z,-2.70
2023-02-16T06:02:24.412Z,-2.70
2023-02-16T06:07:27.701Z,-2.70
2023-02-16T06:12:32.411Z,-2.70
2023-02-16T06:17:35.335Z,-2.80
2023-02-16T06:22:38.403Z,-2.70
2023-02-16T06:27:41.427Z,-2.70
2023-02-16T06:32:44.384Z,-2.60
2023-02-16T06:37:47.396Z,-2.50
2023-02-16T06:42:50.354Z,-2.40
2023-02-16T06:47:53.369Z,-2.30
2023-02-16T06:52:56.270Z,-2.20
2023-02-16T06:57:59.227Z,-2.10
2023-02-16T07:03:02.758Z,-2.00
2023-02-16T07:08:05.659Z,-1.90
2023-02-16T07:13:08.599Z,-1.80
2023-02-16T07:18:11.465Z,-1.70
2023-02-16T07:23:14.365Z,-1.70
2023-02-16T07:28:17.664Z,-1.50
2023-02-16T07:33:21.297Z,-1.40
2023-02-16T07:38:24.053Z,-1.30
2023-02-16T07:43:27.166Z,-1.20
2023-02-16T07:48:30.259Z,-1.00
2023-02-16T07:53:33.382Z,-0.80
2023-02-16T07:58:36.906Z,-0.70
2023-02-16T08:03:41.265Z,-0.40
2023-02-16T08:08:44.829Z,-0.20
2023-02-16T08:13:48.353Z,-0.10
2023-02-16T08:18:52.800Z,0.00
2023-02-16T08:24:05.899Z,0.20
2023-02-16T08:29:10.302Z,0.30
2023-02-16T08:34:16.572Z,0.60
2023-02-16T08:39:21.552Z,1.00
2023-02-16T08:44:25.832Z,1.60
2023-02-16T08:49:28.892Z,2.40
2023-02-16T08:54:33.484Z,3.10
2023-02-16T08:59:36.417Z,3.80
2023-02-16T09:04:39.864Z,4.40
2023-02-16T09:09:44.560Z,4.90
2023-02-16T09:14:47.752Z,5.30
2023-02-16T09:19:50.856Z,5.60
2023-02-16T09:24:53.806Z,6.00
2023-02-16T09:29:58.605Z,6.30
2023-02-16T09:35:01.693Z,6.60
2023-02-16T09:40:05.303Z,6.80
2023-02-16T09:45:15.813Z,7.00
2023-02-16T09:50:50.288Z,7.30
2023-02-16T09:56:10.205Z,7.50
2023-02-16T10:01:43.238Z,7.90
2023-02-16T10:06:58.412Z,8.30
2023-02-16T10:12:09.408Z,8.70
2023-02-16T10:17:37.692Z,8.50
2023-02-16T10:23:25.194Z,8.30
2023-02-16T10:28:55.514Z,8.50
2023-02-16T10:34:24.701Z,8.90
2023-02-16T10:39:52.114Z,9.60
2023-02-16T10:45:20.774Z,10.10
2023-02-16T10:50:41.006Z,10.60
2023-02-16T10:55:44.033Z,11.10
2023-02-16T11:01:15.690Z,11.20
2023-02-16T11:06:26.222Z,11.50
2023-02-16T11:11:37.291Z,12.00
2023-02-16T11:16:40.571Z,12.30
2023-02-16T11:21:56.634Z,12.50
2023-02-16T11:27:23.268Z,12.90
2023-02-16T11:32:26.445Z,13.40
2023-02-16T11:37:33.587Z,13.50
2023-02-16T11:42:44.652Z,13.50
2023-02-16T11:47:55.953Z,13.70
2023-02-16T11:53:24.917Z,13.60
2023-02-16T11:58:29.310Z,13.50
2023-02-16T12:03:49.141Z,13.30
2023-02-16T12:09:15.743Z,13.00
2023-02-16T12:14:51.360Z,12.60
2023-02-16T12:20:23.332Z,12.00
2023-02-16T12:25:42.244Z,11.50
2023-02-16T12:31:22.720Z,11.20
2023-02-16T12:36:56.490Z,11.20
2023-02-16T12:42:32.552Z,11.00
2023-02-16T12:47:44.024Z,10.90
2023-02-16T12:52:59.073Z,10.80
2023-02-16T12:58:08.292Z,10.70
2023-02-16T13:03:22.589Z,10.70
2023-02-16T13:08:39.329Z,10.70
2023-02-16T13:13:46.921Z,10.70
2023-02-16T13:18:52.855Z,10.70
2023-02-16T13:24:35.018Z,10.70
2023-02-16T13:29:52.749Z,10.80
2023-02-16T13:35:35.815Z,10.90
2023-02-16T13:41:11.777Z,10.80
2023-02-16T13:46:28.692Z,10.90
2023-02-16T13:51:46.312Z,10.90
2023-02-16T13:56:49.353Z,10.80
2023-02-16T14:01:57.022Z,10.70
2023-02-16T14:07:09.770Z,10.60
2023-02-16T14:12:19.579Z,10.60
2023-02-16T14:17:22.663Z,10.60
2023-02-16T14:23:00.148Z,10.60
2023-02-16T14:28:26.121Z,10.60
2023-02-16T14:33:46.406Z,10.60
2023-02-16T14:38:52.185Z,10.60
2023-02-16T14:44:07.505Z,10.50
2023-02-16T14:49:55.215Z,10.40
2023-02-16T14:55:51.555Z,10.30
2023-02-16T15:01:16.540Z,10.30
2023-02-16T15:06:25.453Z,10.20
2023-02-16T15:12:00.561Z,10.10
2023-02-16T15:17:08.218Z,10.00
2023-02-16T15:22:23.144Z,9.90
2023-02-16T15:27:26.581Z,9.70
2023-02-16T15:32:29.588Z,9.50
2023-02-16T15:37:33.063Z,9.30
2023-02-16T15:42:38.295Z,9.10
2023-02-16T15:47:41.158Z,8.90
2023-02-16T15:52:44.204Z,8.70
2023-02-16T15:57:47.229Z,8.50
2023-02-16T16:02:54.839Z,8.20
2023-02-16T16:07:58.757Z,7.90
2023-02-16T16:13:06.952Z,7.70
2023-02-16T16:18:50.366Z,7.50
2023-02-16T16:24:00.378Z,7.30
2023-02-16T16:29:04.535Z,7.10
2023-02-16T16:34:12.488Z,6.90
2023-02-16T16:39:18.460Z,6.70
2023-02-16T16:44:38.952Z,6.60
2023-02-16T16:50:02.943Z,6.50
2023-02-16T16:55:35.017Z,6.40
2023-02-16T17:00:42.269Z,6.40
2023-02-16T17:05:46.129Z,6.30
2023-02-16T17:10:49.270Z,6.30
2023-02-16T17:16:12.325Z,6.20
2023-02-16T17:21:16.343Z,6.20
2023-02-16T17:26:19.218Z,6.10
2023-02-16T17:31:22.220Z,6.10
2023-02-16T17:36:27.746Z,6.10
2023-02-16T17:41:30.842Z,6.10
2023-02-16T17:46:33.951Z,6.00
2023-02-16T17:51:37.238Z,5.80
2023-02-16T17:56:40.346Z,5.60
2023-02-16T18:01:45.196Z,5.50
2023-02-16T18:06:48.260Z,5.50
2023-02-16T18:11:51.473Z,5.40
2023-02-16T18:16:54.606Z,5.20
2023-02-16T18:21:57.796Z,5.20
2023-02-16T18:27:00.536Z,5.20
2023-02-16T18:32:04.705Z,5.30
2023-02-16T18:37:07.630Z,5.40
2023-02-16T18:42:11.570Z,5.40
2023-02-16T18:47:15.225Z,5.50
2023-02-16T18:52:19.115Z,5.50
2023-02-16T18:57:22.748Z,5.40
2023-02-16T19:02:25.837Z,5.30
2023-02-16T19:07:29.051Z,5.20
2023-02-16T19:12:32.120Z,5.00
2023-02-16T19:17:35.898Z,5.00
2023-02-16T19:22:38.982Z,4.90
2023-02-16T19:27:42.949Z,4.80
2023-02-16T19:32:45.902Z,4.80
2023-02-16T19:37:49.530Z,4.90
2023-02-16T19:42:52.536Z,4.90
2023-02-16T19:47:55.443Z,4.90
2023-02-16T19:52:58.325Z,4.90
2023-02-16T19:58:01.711Z,4.90
2023-02-16T20:03:04.825Z,4.80
2023-02-16T20:08:08.125Z,4.80
2023-02-16T20:13:11.415Z,4.60
2023-02-16T20:18:14.407Z,4.40
2023-02-16T20:23:17.562Z,4.10
2023-02-16T20:28:21.005Z,3.80
2023-02-16T20:33:23.975Z,3.60
2023-02-16T20:38:26.899Z,3.40
2023-02-16T20:43:30.476Z,3.50
2023-02-16T20:48:34.679Z,3.70
2023-02-16T20:53:37.879Z,4.00
2023-02-16T20:58:42.330Z,4.20
2023-02-16T21:03:45.789Z,4.20
2023-02-16T21:08:48.708Z,4.00
2023-02-16T21:13:52.089Z,3.70
2023-02-16T21:18:56.447Z,3.50
2023-02-16T21:23:59.472Z,3.30
2023-02-16T21:29:02.584Z,3.20
2023-02-16T21:34:05.583Z,3.10
2023-02-16T21:39:08.450Z,3.10
2023-02-16T21:44:15.648Z,3.10
2023-02-16T21:49:20.577Z,3.20
2023-02-16T21:54:43.685Z,3.30
2023-02-16T21:59:46.581Z,3.40
2023-02-16T22:04:49.563Z,3.50
2023-02-16T22:09:52.452Z,3.50
2023-02-16T22:14:55.546Z,3.40
2023-02-16T22:19:58.397Z,3.30
2023-02-16T22:25:01.198Z,3.20
2023-02-16T22:30:06.140Z,3.10
2023-02-16T22:35:09.169Z,2.90
2023-02-16T22:40:12.279Z,2.70
2023-02-16T22:45:15.281Z,2.60
2023-02-16T22:50:18.446Z,2.40
2023-02-16T22:55:21.426Z,2.40
2023-02-16T23:00:24.367Z,2.30
2023-02-16T23:05:29.504Z,2.20
2023-02-16T23:10:35.525Z,2.20
2023-02-16T23:15:38.516Z,2.00
2023-02-16T23:20:41.932Z,1.90
2023-02-16T23:25:47.935Z,1.80
2023-02-16T23:30:50.679Z,1.70
2023-02-16T23:35:54.948Z,1.60
2023-02-16T23:41:05.517Z,1.50
2023-02-16T23:46:09.980Z,1.40
2023-02-16T23:51:13.140Z,1.40
2023-02-16T23:56:25.853Z,1.30
